Time;durP1;ratioP1;P1;durP2;ratioP2;P2;SDS_P1;SDS_P2;PMS_P1;PMS_P2;Temp;Humidity;BMP_temperature;BMP_pressure;BME280_temperature;BME280_humidity;BME280_pressure;Samples;Min_cycle;Max_cycle;Signal;HPM_P1;HPM_P2
2023/12/01 00:00:39;;;;;;;66.10;40.78;;;8.40;93.40;;;;;;5050314;28;20049;-73
2023/12/01 00:03:05;;;;;;;65.88;39.85;;;8.40;93.50;;;;;;5049887;28;20453;-70
2023/12/01 00:05:31;;;;;;;67.53;43.08;;;8.40;93.40;;;;;;5049518;28;20072;-70
2023/12/01 00:07:56;;;;;;;69.38;42.92;;;8.30;93.40;;;;;;5049955;28;20025;-72
2023/12/01 00:10:22;;;;;;;69.35;41.80;;;8.30;93.50;;;;;;5050055;28;20473;-72
2023/12/01 00:12:48;;;;;;;70.63;44.10;;;8.40;93.60;;;;;;5049978;28;20058;-73
2023/12/01 00:15:13;;;;;;;67.63;43.72;;;8.30;93.60;;;;;;5049719;28;20539;-73
2023/12/01 00:17:39;;;;;;;69.82;43.60;;;8.40;93.50;;;;;;5050034;28;20033;-74
2023/12/01 00:20:05;;;;;;;72.50;45.05;;;8.30;93.60;;;;;;5049270;28;20048;-68
2023/12/01 00:22:31;;;;;;;70.43;45.40;;;8.30;93.50;;;;;;5049677;28;20032;-75
2023/12/01 00:24:56;;;;;;;75.28;46.25;;;8.30;93.50;;;;;;5049561;28;20025;-75
2023/12/01 00:27:22;;;;;;;66.43;44.67;;;8.30;93.50;;;;;;5049648;28;20473;-69
2023/12/01 00:29:48;;;;;;;71.13;43.95;;;8.30;93.50;;;;;;5049881;28;20017;-70
2023/12/01 00:32:13;;;;;;;66.78;42.42;;;8.30;93.60;;;;;;5049560;28;20108;-69
2023/12/01 00:34:39;;;;;;;71.53;43.80;;;8.30;93.70;;;;;;5049488;28;20470;-72
2023/12/01 00:37:04;;;;;;;76.88;45.92;;;8.20;93.70;;;;;;5049409;28;20056;-74
2023/12/01 00:39:30;;;;;;;75.25;47.95;;;8.30;93.90;;;;;;5049522;28;20047;-74
2023/12/01 00:41:55;;;;;;;70.22;46.08;;;8.30;93.80;;;;;;5049453;28;20052;-68
2023/12/01 00:44:21;;;;;;;79.55;47.75;;;8.20;93.80;;;;;;5049673;28;20327;-72
2023/12/01 00:46:47;;;;;;;77.97;48.40;;;8.30;93.90;;;;;;5049204;28;20476;-73
2023/12/01 00:49:12;;;;;;;74.80;47.00;;;8.20;93.90;;;;;;5049232;28;20032;-68
2023/12/01 00:51:41;;;;;;;76.65;47.78;;;8.20;93.80;;;;;;5049210;28;20021;-74
2023/12/01 00:54:07;;;;;;;72.90;45.10;;;8.30;93.60;;;;;;5049669;28;20108;-73
2023/12/01 00:56:33;;;;;;;67.80;41.85;;;8.20;93.60;;;;;;5049426;28;20095;-71
2023/12/01 00:58:58;;;;;;;66.45;41.60;;;8.20;93.50;;;;;;5052102;28;20055;-69
2023/12/01 01:01:24;;;;;;;66.47;41.67;;;8.20;93.60;;;;;;5053260;28;20496;-68
2023/12/01 01:03:49;;;;;;;59.67;38.28;;;8.20;93.60;;;;;;5053071;28;20032;-68
2023/12/01 01:06:15;;;;;;;60.47;36.60;;;8.20;93.60;;;;;;5053050;28;20048;-67
2023/12/01 01:08:40;;;;;;;53.75;34.47;;;8.20;93.60;;;;;;5053418;28;20478;-68
2023/12/01 01:11:06;;;;;;;57.60;36.38;;;8.20;93.50;;;;;;5053058;28;20044;-73
2023/12/01 01:13:32;;;;;;;56.58;36.88;;;8.20;93.50;;;;;;5053006;28;20025;-68
2023/12/01 01:15:58;;;;;;;57.03;36.25;;;8.20;93.40;;;;;;5052991;28;20031;-68
2023/12/01 01:18:23;;;;;;;56.70;35.60;;;8.20;93.40;;;;;;5034781;28;20059;-68
2023/12/01 01:20:49;;;;;;;58.90;34.40;;;8.10;93.50;;;;;;5052780;28;20061;-68
2023/12/01 01:23:15;;;;;;;57.25;36.70;;;8.10;93.50;;;;;;5052750;28;20060;-68
2023/12/01 01:25:41;;;;;;;56.80;35.72;;;8.10;93.60;;;;;;5052810;28;20124;-68
2023/12/01 01:28:07;;;;;;;54.78;34.15;;;8.10;93.60;;;;;;5052815;28;20166;-69
2023/12/01 01:30:33;;;;;;;52.97;34.15;;;8.10;93.70;;;;;;5052766;28;20063;-68
2023/12/01 01:32:59;;;;;;;54.95;33.90;;;8.10;93.70;;;;;;5052922;28;20021;-68
2023/12/01 01:35:25;;;;;;;48.17;31.95;;;8.10;93.60;;;;;;5052663;28;20095;-68
2023/12/01 01:37:50;;;;;;;44.40;29.38;;;8.10;93.50;;;;;;5052674;28;20041;-67
2023/12/01 01:40:16;;;;;;;44.05;30.35;;;8.10;93.50;;;;;;5034678;28;20079;-68
2023/12/01 01:42:42;;;;;;;43.30;30.30;;;8.00;93.40;;;;;;5052516;28;20017;-68
2023/12/01 01:45:08;;;;;;;47.40;29.67;;;8.00;93.40;;;;;;5052581;28;20029;-69
2023/12/01 01:47:34;;;;;;;44.65;29.48;;;8.00;93.50;;;;;;5052509;28;20048;-67
2023/12/01 01:50:02;;;;;;;45.33;29.85;;;8.00;93.50;;;;;;5052440;28;20028;-67
2023/12/01 01:52:28;;;;;;;43.75;28.75;;;8.00;93.50;;;;;;5052185;28;20079;-67
2023/12/01 01:54:54;;;;;;;45.78;31.35;;;8.00;93.40;;;;;;5034545;28;20076;-68
2023/12/01 01:57:19;;;;;;;44.85;30.10;;;8.00;93.50;;;;;;5052303;28;20021;-68
2023/12/01 01:59:45;;;;;;;48.13;29.80;;;8.00;93.50;;;;;;5052510;28;20029;-68
2023/12/01 02:02:11;;;;;;;49.35;30.30;;;7.90;93.50;;;;;;5051814;28;20035;-67
2023/12/01 02:04:36;;;;;;;44.78;30.80;;;7.90;93.50;;;;;;5052051;28;20029;-67
2023/12/01 02:07:02;;;;;;;48.53;31.83;;;7.90;93.50;;;;;;5052271;28;20418;-69
2023/12/01 02:09:32;;;;;;;49.03;32.50;;;7.90;93.60;;;;;;5051650;28;20021;-69
2023/12/01 02:11:59;;;;;;;50.97;31.92;;;7.90;93.70;;;;;;5052114;28;20021;-68
2023/12/01 02:14:25;;;;;;;47.10;31.30;;;7.90;93.80;;;;;;5051914;28;20039;-71
2023/12/01 02:16:51;;;;;;;48.47;32.20;;;7.90;93.90;;;;;;5051528;28;20025;-73
2023/12/01 02:19:16;;;;;;;46.28;31.25;;;7.90;93.70;;;;;;5051641;28;20021;-73
2023/12/01 02:21:45;;;;;;;48.17;30.55;;;7.90;93.90;;;;;;5051684;28;20029;-70
2023/12/01 02:24:12;;;;;;;47.92;31.13;;;7.90;93.70;;;;;;5051668;28;20136;-68
2023/12/01 02:26:37;;;;;;;49.03;31.35;;;7.90;93.80;;;;;;5051717;28;20087;-73
2023/12/01 02:29:06;;;;;;;47.78;31.45;;;7.90;93.80;;;;;;5051605;28;20025;-72
2023/12/01 02:31:32;;;;;;;46.17;30.17;;;7.90;93.90;;;;;;5051538;28;20378;-70
2023/12/01 02:33:58;;;;;;;46.08;30.77;;;7.90;93.80;;;;;;5051440;28;20021;-73
2023/12/01 02:36:24;;;;;;;45.95;30.85;;;7.80;93.60;;;;;;5051710;28;20047;-74
2023/12/01 02:38:50;;;;;;;46.30;31.00;;;7.80;93.60;;;;;;5051253;28;20071;-74
2023/12/01 02:41:17;;;;;;;46.00;30.02;;;7.90;93.70;;;;;;5051542;28;20481;-70
2023/12/01 02:43:44;;;;;;;43.65;29.67;;;7.90;93.40;;;;;;5051080;28;20531;-73
2023/12/01 02:46:13;;;;;;;44.80;29.42;;;7.90;93.50;;;;;;5051213;28;20060;-69
2023/12/01 02:48:39;;;;;;;43.97;30.02;;;7.80;93.70;;;;;;5051564;28;20041;-72
2023/12/01 02:51:06;;;;;;;45.70;30.55;;;7.90;93.80;;;;;;5051279;28;20025;-72
2023/12/01 02:53:32;;;;;;;46.50;29.38;;;7.80;93.70;;;;;;5033268;28;20115;-68
2023/12/01 02:55:57;;;;;;;44.53;30.08;;;7.90;93.80;;;;;;5051290;28;20159;-71
2023/12/01 02:58:24;;;;;;;45.58;29.92;;;7.90;93.70;;;;;;5050708;28;20194;-74
2023/12/01 03:00:50;;;;;;;44.95;30.58;;;7.90;93.70;;;;;;5051015;28;20099;-73
2023/12/01 03:03:15;;;;;;;49.55;31.77;;;7.90;93.70;;;;;;5051110;28;20159;-72
2023/12/01 03:05:41;;;;;;;47.95;32.00;;;7.90;93.70;;;;;;5050919;28;20100;-73
2023/12/01 03:08:06;;;;;;;46.53;32.40;;;7.90;93.70;;;;;;5050888;28;20493;-73
2023/12/01 03:10:33;;;;;;;45.08;31.52;;;7.90;93.70;;;;;;5050885;28;20021;-71
2023/12/01 03:12:59;;;;;;;46.80;31.15;;;7.90;93.70;;;;;;5050523;28;20024;-71
2023/12/01 03:15:25;;;;;;;50.42;33.40;;;7.90;93.70;;;;;;5050705;28;20028;-70
2023/12/01 03:17:51;;;;;;;43.83;31.20;;;7.90;93.90;;;;;;5050707;28;20017;-70
2023/12/01 03:20:16;;;;;;;46.72;31.77;;;7.90;93.90;;;;;;5032113;28;20288;-73
2023/12/01 03:22:47;;;;;;;47.95;32.38;;;7.90;93.90;;;;;;5050484;28;20392;-72
2023/12/01 03:25:13;;;;;;;50.95;33.55;;;7.90;93.90;;;;;;5050541;28;20114;-71
2023/12/01 03:27:43;;;;;;;45.13;32.13;;;7.90;94.00;;;;;;5050850;28;20068;-69
2023/12/01 03:30:14;;;;;;;46.38;31.98;;;7.90;93.90;;;;;;5050273;28;20032;-71
2023/12/01 03:32:52;;;;;;;46.65;31.58;;;7.90;94.00;;;;;;5050418;28;20053;-73
2023/12/01 03:35:22;;;;;;;49.88;33.55;;;7.80;94.00;;;;;;5050332;28;20017;-70
2023/12/01 03:37:57;;;;;;;49.22;34.17;;;7.90;94.00;;;;;;5050342;28;20033;-70
2023/12/01 03:40:26;;;;;;;50.80;34.55;;;7.80;94.00;;;;;;5050098;28;20116;-69
2023/12/01 03:42:52;;;;;;;47.15;33.13;;;7.80;94.00;;;;;;5049957;28;20025;-67
2023/12/01 03:45:17;;;;;;;54.45;37.38;;;7.80;94.10;;;;;;5050104;28;20036;-67
2023/12/01 03:47:46;;;;;;;49.72;34.08;;;7.80;94.20;;;;;;5050384;28;20051;-69
2023/12/01 03:50:12;;;;;;;56.15;35.88;;;7.80;94.30;;;;;;5049925;28;20041;-67
2023/12/01 03:52:42;;;;;;;51.17;35.58;;;7.80;94.30;;;;;;5050441;28;20402;-70
2023/12/01 03:55:09;;;;;;;52.72;36.08;;;7.80;94.30;;;;;;5050130;28;20052;-72
2023/12/01 03:57:35;;;;;;;51.03;36.30;;;7.80;94.30;;;;;;5049820;28;20066;-70
2023/12/01 04:00:05;;;;;;;56.45;39.13;;;7.80;94.30;;;;;;5049978;28;20057;-69
2023/12/01 04:02:33;;;;;;;51.88;37.17;;;7.80;94.30;;;;;;5049932;28;20016;-71
2023/12/01 04:04:58;;;;;;;50.13;36.00;;;7.80;94.30;;;;;;5032001;28;20074;-68
2023/12/01 04:07:24;;;;;;;53.88;36.53;;;7.70;94.30;;;;;;5049902;28;20437;-69
2023/12/01 04:09:50;;;;;;;50.75;36.97;;;7.80;94.50;;;;;;5049700;28;20032;-68
2023/12/01 04:12:15;;;;;;;51.90;37.25;;;7.80;94.40;;;;;;5049586;28;20040;-68
2023/12/01 04:14:41;;;;;;;53.60;38.40;;;7.80;94.40;;;;;;5049900;28;20029;-67
2023/12/01 04:17:09;;;;;;;51.70;38.10;;;7.80;94.30;;;;;;5049709;28;20381;-70
2023/12/01 04:19:38;;;;;;;49.35;35.90;;;7.80;94.30;;;;;;5049716;28;20029;-70
2023/12/01 04:22:07;;;;;;;46.50;35.70;;;7.80;94.30;;;;;;5049379;28;20448;-69
2023/12/01 04:24:33;;;;;;;50.17;35.70;;;7.80;94.30;;;;;;5049884;28;20029;-68
2023/12/01 04:27:02;;;;;;;47.05;36.22;;;7.70;94.60;;;;;;5049150;28;20100;-67
2023/12/01 04:29:29;;;;;;;52.03;36.50;;;7.70;94.20;;;;;;5049704;28;20029;-67
2023/12/01 04:31:56;;;;;;;50.42;37.13;;;7.70;93.90;;;;;;5049725;28;20040;-67
2023/12/01 04:34:21;;;;;;;49.95;38.05;;;7.70;93.70;;;;;;5053178;28;20397;-67
2023/12/01 04:36:52;;;;;;;50.85;36.67;;;7.70;93.60;;;;;;5053948;28;20540;-68
2023/12/01 04:39:18;;;;;;;55.13;39.45;;;7.70;93.60;;;;;;5053607;28;20021;-67
2023/12/01 04:41:44;;;;;;;49.58;36.53;;;7.70;93.50;;;;;;5053465;28;20017;-68
2023/12/01 04:44:09;;;;;;;55.08;39.28;;;7.60;93.60;;;;;;5053610;28;20036;-70
2023/12/01 04:46:35;;;;;;;51.60;38.22;;;7.60;93.60;;;;;;5053452;28;20060;-68
2023/12/01 04:49:01;;;;;;;49.72;35.90;;;7.60;93.80;;;;;;5053537;28;20377;-70
2023/12/01 04:51:26;;;;;;;47.47;34.88;;;7.60;93.50;;;;;;5053242;28;20029;-69
2023/12/01 04:53:52;;;;;;;49.58;36.60;;;7.60;93.50;;;;;;5053927;28;20095;-68
2023/12/01 04:56:18;;;;;;;45.40;34.17;;;7.60;93.50;;;;;;5052945;28;20476;-69
2023/12/01 04:58:43;;;;;;;46.35;34.45;;;7.60;93.50;;;;;;5053515;28;20048;-71
2023/12/01 05:01:09;;;;;;;48.13;36.20;;;7.60;93.50;;;;;;5053223;28;20029;-67
2023/12/01 05:03:35;;;;;;;42.92;32.35;;;7.60;93.50;;;;;;5053423;28;20025;-67
2023/12/01 05:06:01;;;;;;;41.85;31.92;;;7.50;93.40;;;;;;5052960;28;20055;-67
2023/12/01 05:08:27;;;;;;;44.47;32.95;;;7.60;93.30;;;;;;5053200;28;20020;-67
2023/12/01 05:10:54;;;;;;;43.97;32.90;;;7.70;92.80;;;;;;5053103;28;20452;-67
2023/12/01 05:13:20;;;;;;;43.40;33.17;;;7.80;92.50;;;;;;5052823;28;20021;-70
2023/12/01 05:15:46;;;;;;;42.95;33.83;;;7.90;92.30;;;;;;5053174;28;20083;-69
2023/12/01 05:18:12;;;;;;;46.25;34.05;;;7.90;92.00;;;;;;5052740;28;20410;-68
2023/12/01 05:20:39;;;;;;;42.25;32.63;;;8.00;92.00;;;;;;5053057;28;20040;-68
2023/12/01 05:23:09;;;;;;;38.70;29.98;;;8.00;91.70;;;;;;5052412;28;20518;-67
2023/12/01 05:25:36;;;;;;;42.97;31.98;;;8.10;91.60;;;;;;5034731;28;20078;-67
2023/12/01 05:28:06;;;;;;;39.85;30.88;;;8.00;91.70;;;;;;5052900;28;20478;-66
2023/12/01 05:30:33;;;;;;;45.47;33.75;;;8.10;91.70;;;;;;5052750;28;20036;-66
2023/12/01 05:33:00;;;;;;;45.45;33.83;;;8.10;91.70;;;;;;5052589;28;20025;-68
2023/12/01 05:35:26;;;;;;;43.15;32.30;;;8.10;91.70;;;;;;5052756;28;20038;-67
2023/12/01 05:37:54;;;;;;;42.83;32.25;;;8.10;91.70;;;;;;5052306;28;20100;-67
2023/12/01 05:40:23;;;;;;;42.20;31.63;;;8.10;91.80;;;;;;5052743;28;20078;-67
2023/12/01 05:42:52;;;;;;;40.45;28.52;;;8.10;91.80;;;;;;5052284;28;20071;-66
2023/12/01 05:45:20;;;;;;;40.63;30.80;;;8.10;91.70;;;;;;5051794;28;20470;-67
2023/12/01 05:47:47;;;;;;;38.85;30.15;;;8.00;91.80;;;;;;5052636;28;20068;-67
2023/12/01 05:50:15;;;;;;;39.38;28.55;;;8.00;92.20;;;;;;5052463;28;20017;-67
2023/12/01 05:52:47;;;;;;;39.85;30.23;;;8.10;91.90;;;;;;5051980;28;20024;-67
2023/12/01 05:55:15;;;;;;;45.10;33.38;;;8.00;91.70;;;;;;5052316;28;20037;-67
2023/12/01 05:57:44;;;;;;;46.65;33.83;;;8.10;91.60;;;;;;5052202;28;20021;-67
2023/12/01 06:00:12;;;;;;;45.45;34.17;;;8.10;91.60;;;;;;5052139;28;20382;-68
2023/12/01 06:02:40;;;;;;;46.55;34.20;;;8.10;91.60;;;;;;5052075;28;20025;-67
2023/12/01 06:05:06;;;;;;;49.38;35.95;;;8.00;91.70;;;;;;5050931;28;20792;-68
2023/12/01 06:07:32;;;;;;;47.65;34.92;;;8.00;91.70;;;;;;5050419;28;20076;-67
2023/12/01 06:09:58;;;;;;;48.30;35.63;;;8.00;91.90;;;;;;5051754;28;20075;-66
2023/12/01 06:12:24;;;;;;;45.45;34.13;;;8.00;91.70;;;;;;5051923;28;20026;-67
2023/12/01 06:14:49;;;;;;;47.50;36.25;;;8.00;91.80;;;;;;5052222;28;20074;-68
2023/12/01 06:17:15;;;;;;;50.67;37.35;;;8.00;91.60;;;;;;5034219;28;20386;-67
2023/12/01 06:19:40;;;;;;;50.15;36.97;;;8.00;91.50;;;;;;5052218;28;20071;-67
2023/12/01 06:22:07;;;;;;;46.83;34.97;;;8.00;91.40;;;;;;5049502;28;20043;-67
2023/12/01 06:24:33;;;;;;;51.42;36.33;;;7.90;91.60;;;;;;5034042;28;20044;-67
2023/12/01 06:27:03;;;;;;;43.55;31.30;;;7.90;91.60;;;;;;5051620;28;20478;-66
2023/12/01 06:29:30;;;;;;;45.75;32.58;;;7.80;91.40;;;;;;5050097;28;20078;-73
2023/12/01 06:31:56;;;;;;;48.00;33.75;;;7.80;91.40;;;;;;5049531;28;20029;-67
2023/12/01 06:34:23;;;;;;;45.42;32.42;;;7.90;91.40;;;;;;5050513;28;20095;-68
2023/12/01 06:36:49;;;;;;;43.45;32.08;;;7.80;91.50;;;;;;5050569;28;20154;-66
2023/12/01 06:39:15;;;;;;;42.42;30.55;;;7.90;91.60;;;;;;5051331;28;20029;-66
2023/12/01 06:41:42;;;;;;;42.85;30.38;;;7.80;91.60;;;;;;5031381;28;20039;-67
2023/12/01 06:44:09;;;;;;;42.42;27.48;;;7.80;91.70;;;;;;5052089;28;20513;-66
2023/12/01 06:46:35;;;;;;;39.17;27.55;;;7.80;91.60;;;;;;5031698;28;20033;-67
2023/12/01 06:49:01;;;;;;;39.67;26.45;;;7.80;91.50;;;;;;5053326;28;20421;-66
2023/12/01 06:51:27;;;;;;;38.50;27.05;;;7.80;91.50;;;;;;5049746;28;20111;-66
2023/12/01 06:53:53;;;;;;;40.33;27.45;;;7.80;91.50;;;;;;5051153;28;20021;-66
2023/12/01 06:56:18;;;;;;;43.08;27.65;;;7.80;91.40;;;;;;5052799;28;20066;-66
2023/12/01 06:58:44;;;;;;;42.55;27.58;;;7.70;91.40;;;;;;5054572;28;20029;-67
2023/12/01 07:01:18;;;;;;;41.00;26.25;;;7.70;91.30;;;;;;5047288;28;20021;-68
2023/12/01 07:03:44;;;;;;;39.88;27.48;;;7.70;91.30;;;;;;5047184;28;20031;-69
2023/12/01 07:06:10;;;;;;;38.30;26.17;;;7.80;91.30;;;;;;5048360;28;20440;-67
2023/12/01 07:08:36;;;;;;;39.08;26.73;;;7.70;91.90;;;;;;5061522;28;20496;-67
2023/12/01 07:11:03;;;;;;;41.13;27.27;;;7.60;91.90;;;;;;5049223;28;20032;-67
2023/12/01 07:13:29;;;;;;;38.03;25.63;;;7.50;92.20;;;;;;5049957;28;20025;-67
2023/12/01 07:15:56;;;;;;;36.58;24.55;;;7.50;92.30;;;;;;5060568;28;20474;-72
2023/12/01 07:18:21;;;;;;;39.92;25.75;;;7.40;92.50;;;;;;5053598;28;20024;-72
2023/12/01 07:20:47;;;;;;;55.28;38.53;;;7.30;92.60;;;;;;5041877;28;20082;-68
2023/12/01 07:23:12;;;;;;;38.85;25.55;;;7.20;92.60;;;;;;5049287;28;21436;-68
2023/12/01 07:25:38;;;;;;;37.53;25.33;;;7.20;92.80;;;;;;5048763;28;20497;-68
2023/12/01 07:28:06;;;;;;;38.25;25.13;;;7.20;92.90;;;;;;5047435;28;20060;-69
2023/12/01 07:30:31;;;;;;;37.40;24.10;;;7.10;93.00;;;;;;5047964;28;20415;-67
2023/12/01 07:33:01;;;;;;;36.00;24.60;;;7.10;93.00;;;;;;5046447;28;20516;-67
2023/12/01 07:35:27;;;;;;;40.70;25.17;;;7.10;93.20;;;;;;5043439;28;20112;-67
2023/12/01 07:37:53;;;;;;;41.38;25.90;;;7.10;93.30;;;;;;5048168;28;20386;-66
2023/12/01 07:40:19;;;;;;;39.30;25.67;;;7.10;93.30;;;;;;5049044;28;20048;-66
2023/12/01 07:42:46;;;;;;;40.70;26.38;;;7.10;93.40;;;;;;5049818;28;20544;-66
2023/12/01 07:45:17;;;;;;;41.05;25.88;;;7.20;93.40;;;;;;5049595;28;20013;-66
2023/12/01 07:47:46;;;;;;;37.65;24.65;;;7.20;93.30;;;;;;5049606;28;20040;-66
2023/12/01 07:50:14;;;;;;;36.95;24.33;;;7.10;93.20;;;;;;5047937;28;20013;-67
2023/12/01 07:52:41;;;;;;;39.30;25.63;;;7.10;93.20;;;;;;5049158;28;20036;-67
2023/12/01 07:55:07;;;;;;;40.20;24.83;;;7.10;93.20;;;;;;5048866;28;20028;-67
2023/12/01 07:57:32;;;;;;;38.22;24.67;;;7.20;93.20;;;;;;5046334;28;20016;-69
2023/12/01 07:59:58;;;;;;;40.30;24.58;;;7.20;93.30;;;;;;5048612;28;20032;-67
2023/12/01 08:02:24;;;;;;;38.45;24.20;;;7.20;93.20;;;;;;5047398;28;20052;-67
2023/12/01 08:04:49;;;;;;;43.10;24.20;;;7.20;93.20;;;;;;5044938;28;20027;-66
2023/12/01 08:07:15;;;;;;;38.55;24.48;;;7.20;93.20;;;;;;5051287;28;20045;-65
2023/12/01 08:09:42;;;;;;;37.42;23.88;;;7.20;93.30;;;;;;5050801;28;20021;-66
2023/12/01 08:12:08;;;;;;;36.42;23.92;;;7.20;93.30;;;;;;5048800;28;20032;-74
2023/12/01 08:14:33;;;;;;;35.20;23.17;;;7.20;93.00;;;;;;5049579;28;20378;-67
2023/12/01 08:16:59;;;;;;;34.85;22.23;;;7.20;93.10;;;;;;5049338;28;20413;-67
2023/12/01 08:19:24;;;;;;;36.92;22.92;;;7.20;93.00;;;;;;5048218;28;20028;-66
2023/12/01 08:21:50;;;;;;;39.60;24.27;;;7.20;93.10;;;;;;5049488;28;20473;-66
2023/12/01 08:24:20;;;;;;;43.20;24.70;;;7.20;93.00;;;;;;5049708;28;20032;-67
2023/12/01 08:26:46;;;;;;;41.33;25.27;;;7.20;92.90;;;;;;5048906;28;20037;-67
2023/12/01 08:29:13;;;;;;;40.53;24.42;;;7.20;93.10;;;;;;5058554;28;20048;-66
2023/12/01 08:31:39;;;;;;;36.38;22.45;;;7.20;93.00;;;;;;5069666;28;20036;-67
2023/12/01 08:34:08;;;;;;;40.03;23.30;;;7.20;92.80;;;;;;5055067;28;20033;-67
2023/12/01 08:36:37;;;;;;;40.78;23.00;;;7.20;92.90;;;;;;5048761;28;20049;-66
2023/12/01 08:39:04;;;;;;;38.00;22.80;;;7.20;93.00;;;;;;5049747;28;20037;-66
2023/12/01 08:41:30;;;;;;;39.95;22.15;;;7.20;92.90;;;;;;5048996;28;20025;-66
2023/12/01 08:43:56;;;;;;;45.08;25.02;;;7.20;93.00;;;;;;5048529;28;20481;-66
2023/12/01 08:46:21;;;;;;;41.30;23.23;;;7.20;93.00;;;;;;5048244;28;20037;-66
2023/12/01 08:48:47;;;;;;;44.40;23.33;;;7.20;92.90;;;;;;5047680;28;20446;-67
2023/12/01 08:51:13;;;;;;;40.38;22.70;;;7.30;92.80;;;;;;5048896;28;20075;-66
2023/12/01 08:53:38;;;;;;;38.95;23.55;;;7.20;92.90;;;;;;5030830;28;20028;-67
2023/12/01 08:56:04;;;;;;;39.35;21.27;;;7.20;92.80;;;;;;5061322;28;20086;-67
2023/12/01 08:58:30;;;;;;;36.75;22.42;;;7.20;92.90;;;;;;5064234;28;20470;-67
2023/12/01 09:00:56;;;;;;;36.83;21.77;;;7.30;92.80;;;;;;5057468;28;20032;-67
2023/12/01 09:03:21;;;;;;;40.28;21.30;;;7.30;92.70;;;;;;5057122;28;20416;-67
2023/12/01 09:05:48;;;;;;;35.38;20.67;;;7.20;92.60;;;;;;5049477;28;20102;-67
2023/12/01 09:08:14;;;;;;;37.25;21.77;;;7.30;92.60;;;;;;5065765;28;20595;-66
2023/12/01 09:10:39;;;;;;;42.80;23.20;;;7.30;92.50;;;;;;5055426;28;20580;-67
2023/12/01 09:13:05;;;;;;;36.28;21.23;;;7.30;92.70;;;;;;5063912;28;20473;-67
2023/12/01 09:15:31;;;;;;;40.72;22.73;;;7.40;92.60;;;;;;5048777;28;20530;-67
2023/12/01 09:17:56;;;;;;;40.10;23.50;;;7.40;92.90;;;;;;5065313;28;20024;-68
2023/12/01 09:20:22;;;;;;;37.72;21.25;;;7.40;92.50;;;;;;5056129;28;20326;-67
2023/12/01 09:22:48;;;;;;;30.00;17.75;;;7.40;92.60;;;;;;5072600;28;20060;-70
2023/12/01 09:25:13;;;;;;;31.73;17.73;;;7.00;95.40;;;;;;5040190;28;20049;-71
2023/12/01 09:27:42;;;;;;;27.27;16.17;;;6.80;96.40;;;;;;5066855;28;20071;-71
2023/12/01 09:30:13;;;;;;;31.27;16.83;;;6.70;96.60;;;;;;5052132;28;20068;-71
2023/12/01 09:32:39;;;;;;;28.90;17.15;;;6.80;96.90;;;;;;5051098;28;20021;-71
2023/12/01 09:35:06;;;;;;;26.38;14.40;;;7.00;96.50;;;;;;5051951;28;20049;-71
2023/12/01 09:37:31;;;;;;;26.23;15.48;;;7.00;96.80;;;;;;5050024;28;20021;-72
2023/12/01 09:39:57;;;;;;;32.65;18.83;;;7.10;97.00;;;;;;5065403;28;20495;-71
2023/12/01 09:42:24;;;;;;;30.05;17.45;;;7.10;96.50;;;;;;5055332;28;20033;-71
2023/12/01 09:44:54;;;;;;;32.30;18.52;;;7.20;96.60;;;;;;5060387;28;20028;-72
2023/12/01 09:47:20;;;;;;;33.85;19.90;;;7.20;96.40;;;;;;5052259;28;20051;-73
2023/12/01 09:49:48;;;;;;;44.40;24.17;;;7.20;95.90;;;;;;5051957;28;20076;-72
2023/12/01 09:52:13;;;;;;;41.30;21.42;;;7.20;95.30;;;;;;5054663;28;20020;-71
2023/12/01 09:54:39;;;;;;;36.70;21.13;;;7.10;95.60;;;;;;5072196;28;20443;-72
2023/12/01 09:57:07;;;;;;;41.08;22.80;;;7.10;95.70;;;;;;5051906;28;20037;-72
2023/12/01 09:59:36;;;;;;;43.83;23.95;;;7.00;95.60;;;;;;5051629;28;20049;-73
2023/12/01 10:02:03;;;;;;;46.45;25.02;;;7.00;95.70;;;;;;5051176;28;20025;-73
2023/12/01 10:04:32;;;;;;;39.83;20.98;;;7.00;96.10;;;;;;5051725;28;20029;-71
2023/12/01 10:07:00;;;;;;;37.95;21.27;;;7.00;96.20;;;;;;5051212;28;20033;-71
2023/12/01 10:09:35;;;;;;;47.42;24.33;;;7.00;96.20;;;;;;5050959;28;20017;-71
2023/12/01 10:12:10;;;;;;;41.88;22.08;;;7.10;95.90;;;;;;5051210;28;20100;-71
2023/12/01 10:14:43;;;;;;;48.13;23.65;;;7.10;95.90;;;;;;5053821;28;20032;-72
2023/12/01 10:17:10;;;;;;;;;;;7.20;95.90;;;;;;5062509;28;20037;-72
2023/12/01 10:19:49;;;;;;;43.22;22.42;;;7.20;95.80;;;;;;5054524;28;20007;-71
2023/12/01 10:22:19;;;;;;;43.40;24.08;;;7.20;95.90;;;;;;5031941;28;20029;-72
2023/12/01 10:25:03;;;;;;;47.67;26.05;;;7.10;95.80;;;;;;5014157;28;20033;-71
2023/12/01 10:27:29;;;;;;;47.28;26.30;;;7.10;95.10;;;;;;5050018;28;20446;-72
2023/12/01 10:30:13;;;;;;;45.33;24.85;;;7.10;95.50;;;;;;5056164;28;20048;-72
2023/12/01 10:32:40;;;;;;;42.58;22.83;;;7.10;95.30;;;;;;5051947;28;20466;-72
2023/12/01 10:35:06;;;;;;;48.38;25.67;;;7.20;95.60;;;;;;5049407;28;20033;-70
2023/12/01 10:37:33;;;;;;;56.67;28.60;;;7.10;95.10;;;;;;5063772;28;20377;-71
2023/12/01 10:40:05;;;;;;;54.33;29.58;;;6.90;94.20;;;;;;5066853;28;20032;-71
2023/12/01 10:42:34;;;;;;;54.38;28.13;;;6.80;94.40;;;;;;5051083;28;20025;-71
2023/12/01 10:45:01;;;;;;;54.58;29.35;;;6.70;94.60;;;;;;5051165;28;20021;-70
2023/12/01 10:47:28;;;;;;;54.38;30.55;;;6.60;94.50;;;;;;5050742;28;20029;-70
2023/12/01 10:49:57;;;;;;;53.00;29.15;;;6.50;94.50;;;;;;5054228;28;20086;-71
2023/12/01 10:52:24;;;;;;;51.42;29.17;;;6.40;94.90;;;;;;5064413;28;20055;-71
2023/12/01 10:54:50;;;;;;;57.22;30.45;;;6.40;95.10;;;;;;5033532;28;20496;-70
2023/12/01 10:57:30;;;;;;;57.30;30.20;;;6.30;95.10;;;;;;5050804;28;20021;-72
2023/12/01 10:59:59;;;;;;;62.03;32.80;;;6.30;95.10;;;;;;5051061;28;20036;-72
2023/12/01 11:02:25;;;;;;;62.33;31.63;;;6.30;95.50;;;;;;5050996;28;20106;-71
2023/12/01 11:04:51;;;;;;;60.80;31.27;;;6.30;95.60;;;;;;5056310;28;20062;-71
2023/12/01 11:07:36;;;;;;;58.35;30.85;;;6.30;95.40;;;;;;5065840;28;20036;-71
2023/12/01 11:10:19;;;;;;;55.53;29.67;;;6.30;95.50;;;;;;5033709;28;20033;-70
2023/12/01 11:13:06;;;;;;;58.53;30.95;;;6.30;95.00;;;;;;5051464;28;20028;-71
2023/12/01 11:15:34;;;;;;;53.13;29.90;;;6.30;95.00;;;;;;5049770;28;20064;-72
2023/12/01 11:18:00;;;;;;;54.75;30.42;;;6.30;94.90;;;;;;5050879;28;20548;-71
2023/12/01 11:20:37;;;;;;;54.90;31.15;;;6.30;94.90;;;;;;5045840;28;20112;-71
2023/12/01 11:23:05;;;;;;;54.20;31.73;;;6.30;94.90;;;;;;5029749;28;20033;-71
2023/12/01 11:25:51;;;;;;;55.72;32.50;;;6.20;94.60;;;;;;5048667;28;20420;-70
2023/12/01 11:28:22;;;;;;;57.67;32.38;;;6.20;94.50;;;;;;5049354;28;20033;-69
2023/12/01 11:31:08;;;;;;;52.33;31.38;;;6.10;94.70;;;;;;5043867;28;20477;-68
2023/12/01 11:33:38;;;;;;;57.30;32.22;;;6.10;94.60;;;;;;5052113;28;20513;-70
2023/12/01 11:36:25;;;;;;;52.90;31.83;;;6.10;94.50;;;;;;5050403;28;20029;-69
2023/12/01 11:41:38;;;;;;;53.15;31.00;;;6.00;94.30;;;;;;5033242;28;20025;-69
2023/12/01 11:44:07;;;;;;;51.35;30.02;;;6.00;94.20;;;;;;5057870;28;20019;-70
2023/12/01 11:46:34;;;;;;;49.55;30.05;;;6.00;94.30;;;;;;5069393;28;20078;-70
2023/12/01 11:48:59;;;;;;;51.42;30.02;;;6.00;94.90;;;;;;5054089;28;20469;-71
2023/12/01 11:51:26;;;;;;;50.40;31.75;;;6.00;94.30;;;;;;5043897;28;20071;-70
2023/12/01 11:53:58;;;;;;;50.58;30.73;;;6.00;94.40;;;;;;5051647;28;20049;-69
2023/12/01 11:56:33;;;;;;;50.22;30.10;;;6.00;94.30;;;;;;5063154;28;20028;-68
2023/12/01 11:58:59;;;;;;;48.33;31.23;;;5.90;94.70;;;;;;5035780;28;20096;-68
2023/12/01 12:01:25;;;;;;;51.28;31.52;;;6.00;94.60;;;;;;5064985;28;20024;-69
2023/12/01 12:03:57;;;;;;;53.17;32.25;;;6.00;94.90;;;;;;5047369;28;20021;-69
2023/12/01 12:06:23;;;;;;;;;;;6.00;95.00;;;;;;5061444;28;20032;-69
2023/12/01 12:08:51;;;;;;;49.70;30.05;;;6.00;95.10;;;;;;5065515;28;20011;-68
2023/12/01 12:11:17;;;;;;;49.72;29.45;;;6.10;95.10;;;;;;5046920;28;20061;-69
2023/12/01 12:13:44;;;;;;;42.95;28.35;;;6.10;94.90;;;;;;5030095;28;20095;-70
2023/12/01 12:16:11;;;;;;;45.55;28.65;;;6.20;95.10;;;;;;5048565;28;20020;-69
2023/12/01 12:18:37;;;;;;;46.50;28.27;;;6.20;95.20;;;;;;5049839;28;20009;-68
2023/12/01 12:21:04;;;;;;;46.05;28.15;;;6.30;95.20;;;;;;5064393;28;20028;-68
2023/12/01 12:23:31;;;;;;;46.55;28.25;;;6.20;95.40;;;;;;5056638;28;20517;-67
2023/12/01 12:26:17;;;;;;;46.60;28.02;;;6.30;95.20;;;;;;5030793;28;20363;-68
2023/12/01 12:28:48;;;;;;;44.85;26.90;;;6.40;94.80;;;;;;5050934;28;20025;-68
2023/12/01 12:31:15;;;;;;;40.37;25.23;;;6.40;94.90;;;;;;5069114;28;20013;-68
2023/12/01 12:33:41;;;;;;;46.95;28.23;;;6.40;94.70;;;;;;5031753;28;20449;-68
2023/12/01 12:36:07;;;;;;;44.88;26.67;;;6.40;94.60;;;;;;5048711;28;20021;-68
2023/12/01 12:38:33;;;;;;;39.75;25.27;;;6.30;94.50;;;;;;5048854;28;20021;-72
2023/12/01 12:41:00;;;;;;;40.85;25.38;;;6.40;94.70;;;;;;5027532;28;20031;-69